Time;durP1;ratioP1;P1;durP2;ratioP2;P2;SDS_P1;SDS_P2;PMS_P1;PMS_P2;Temp;Humidity;BMP_temperature;BMP_pressure;BME280_temperature;BME280_humidity;BME280_pressure;Samples;Min_cycle;Max_cycle;Signal;HPM_P1;HPM_P2
2024/01/17 00:00:03;;;;;;;11.35;4.55;;;1.00;99.90;;;;;;5095096;28;20504;-81
2024/01/17 00:02:28;;;;;;;8.27;3.92;;;1.00;99.90;;;;;;5095366;28;20040;-81
2024/01/17 00:04:54;;;;;;;10.53;4.43;;;1.00;99.90;;;;;;5095198;28;20485;-76
2024/01/17 00:07:20;;;;;;;8.53;4.50;;;0.90;99.90;;;;;;5095442;28;20067;-81
2024/01/17 00:09:49;;;;;;;13.32;4.97;;;0.90;99.90;;;;;;5095188;28;20059;-81
2024/01/17 00:12:15;;;;;;;10.35;5.10;;;0.90;99.90;;;;;;5093663;28;20097;-81
2024/01/17 00:14:41;;;;;;;9.83;5.43;;;0.80;99.90;;;;;;5095071;28;20051;-80
2024/01/17 00:17:07;;;;;;;9.90;5.28;;;0.90;99.90;;;;;;5094861;28;20131;-81
2024/01/17 00:19:33;;;;;;;12.32;5.38;;;0.80;99.90;;;;;;5094053;28;20056;-80
2024/01/17 00:21:59;;;;;;;11.00;5.53;;;0.80;99.90;;;;;;5094705;28;20052;-80
2024/01/17 00:24:24;;;;;;;12.20;5.78;;;0.80;99.90;;;;;;5095130;28;20048;-81
2024/01/17 00:26:50;;;;;;;13.13;6.03;;;0.80;99.90;;;;;;5094949;28;20125;-81
2024/01/17 00:29:16;;;;;;;12.30;5.73;;;0.80;99.90;;;;;;5094650;28;20052;-81
2024/01/17 00:31:42;;;;;;;12.90;5.83;;;0.80;99.90;;;;;;5094766;28;20040;-80
2024/01/17 00:34:08;;;;;;;9.80;5.13;;;0.80;99.90;;;;;;5093364;28;20048;-80
2024/01/17 00:36:34;;;;;;;10.37;5.53;;;0.90;99.90;;;;;;5094718;28;20056;-81
2024/01/17 00:38:59;;;;;;;16.23;7.03;;;0.80;99.90;;;;;;5094386;28;20446;-80
2024/01/17 00:41:25;;;;;;;13.17;5.80;;;0.90;99.90;;;;;;5094438;28;20044;-81
2024/01/17 00:43:51;;;;;;;15.50;6.33;;;0.80;99.90;;;;;;5094775;28;20048;-80
2024/01/17 00:46:18;;;;;;;12.27;5.97;;;0.80;99.90;;;;;;5094271;28;20214;-80
2024/01/17 00:48:44;;;;;;;13.65;6.32;;;0.80;99.90;;;;;;5094403;28;20036;-80
2024/01/17 00:51:09;;;;;;;12.17;5.93;;;0.90;99.90;;;;;;5094161;28;20055;-80
2024/01/17 00:53:35;;;;;;;14.80;6.33;;;0.90;99.90;;;;;;5094468;28;20393;-80
2024/01/17 00:56:01;;;;;;;13.87;6.73;;;0.90;99.90;;;;;;5093730;28;20063;-78
2024/01/17 00:58:28;;;;;;;16.43;6.80;;;0.90;99.90;;;;;;5093280;28;20109;-80
2024/01/17 01:00:53;;;;;;;10.65;5.93;;;0.90;99.90;;;;;;5094215;28;20040;-80
2024/01/17 01:03:19;;;;;;;13.33;6.33;;;0.90;99.90;;;;;;5094044;28;20481;-80
2024/01/17 01:05:46;;;;;;;11.87;7.00;;;0.80;99.90;;;;;;5094335;28;20426;-80
2024/01/17 01:08:12;;;;;;;15.57;7.60;;;0.80;99.90;;;;;;5093685;28;20051;-79
2024/01/17 01:10:38;;;;;;;15.20;6.90;;;0.80;99.90;;;;;;5094183;28;20045;-80
2024/01/17 01:13:04;;;;;;;15.40;6.50;;;0.80;99.90;;;;;;5093863;28;20052;-79
2024/01/17 01:15:30;;;;;;;13.60;7.03;;;0.80;99.90;;;;;;5093990;28;20394;-80
2024/01/17 01:17:55;;;;;;;10.07;6.37;;;0.80;99.90;;;;;;5093827;28;20127;-80
2024/01/17 01:20:21;;;;;;;12.73;6.50;;;0.80;99.90;;;;;;5093322;28;20051;-80
2024/01/17 01:22:47;;;;;;;13.67;6.73;;;0.80;99.90;;;;;;5094017;28;20102;-80
2024/01/17 01:25:12;;;;;;;16.33;7.33;;;0.80;99.90;;;;;;5093600;28;20044;-80
2024/01/17 01:27:38;;;;;;;12.47;6.43;;;0.90;99.90;;;;;;5093907;28;20090;-79
2024/01/17 01:30:04;;;;;;;12.60;6.60;;;0.90;99.90;;;;;;5093741;28;20048;-80
2024/01/17 01:32:30;;;;;;;11.48;7.68;;;0.80;99.90;;;;;;5093554;28;20504;-80
2024/01/17 01:34:55;;;;;;;12.63;6.90;;;0.80;99.90;;;;;;5093758;28;20123;-80
2024/01/17 01:37:21;;;;;;;15.20;6.80;;;0.90;99.90;;;;;;5092206;28;20074;-79
2024/01/17 01:39:47;;;;;;;14.07;6.87;;;0.90;99.90;;;;;;5093605;28;20078;-80
2024/01/17 01:42:13;;;;;;;12.10;6.60;;;0.80;99.90;;;;;;5093442;28;20047;-80
2024/01/17 01:44:39;;;;;;;15.32;7.28;;;0.80;99.90;;;;;;5093556;28;20043;-80
2024/01/17 01:47:07;;;;;;;12.40;6.27;;;0.90;99.90;;;;;;5093650;28;20550;-80
2024/01/17 01:49:32;;;;;;;13.10;7.38;;;0.80;99.90;;;;;;5093841;28;20044;-79
2024/01/17 01:51:59;;;;;;;10.97;6.80;;;0.90;99.90;;;;;;5093371;28;20109;-80
2024/01/17 01:54:26;;;;;;;12.20;6.75;;;0.90;99.90;;;;;;5092928;28;20043;-79
2024/01/17 01:56:54;;;;;;;17.38;7.35;;;0.80;99.90;;;;;;5092092;28;20052;-80
2024/01/17 01:59:20;;;;;;;18.83;7.80;;;0.90;99.90;;;;;;5093135;28;20052;-79
2024/01/17 02:01:47;;;;;;;14.57;7.35;;;0.80;99.90;;;;;;5093270;28;20370;-80
2024/01/17 02:04:15;;;;;;;18.75;7.72;;;0.80;99.90;;;;;;5093122;28;20052;-79
2024/01/17 02:06:43;;;;;;;14.38;7.75;;;0.80;99.90;;;;;;5093316;28;20379;-80
2024/01/17 02:09:09;;;;;;;15.52;7.53;;;0.90;99.90;;;;;;5093075;28;20051;-80
2024/01/17 02:11:36;;;;;;;13.50;7.28;;;0.90;99.90;;;;;;5093485;28;20044;-80
2024/01/17 02:14:02;;;;;;;13.57;7.70;;;0.80;99.90;;;;;;5093216;28;20051;-80
2024/01/17 02:16:28;;;;;;;15.37;8.40;;;0.80;99.90;;;;;;5092969;28;20044;-79
2024/01/17 02:18:54;;;;;;;13.00;7.63;;;0.90;99.90;;;;;;5093990;28;20047;-80
2024/01/17 02:21:19;;;;;;;14.43;7.50;;;0.80;99.90;;;;;;5096991;28;20040;-79
2024/01/17 02:23:52;;;;;;;12.23;7.80;;;0.80;99.90;;;;;;5097255;28;20043;-80
2024/01/17 02:26:18;;;;;;;13.05;7.47;;;0.80;99.90;;;;;;5097082;28;20047;-79
2024/01/17 02:28:44;;;;;;;13.35;7.78;;;0.80;99.90;;;;;;5097202;28;20048;-79
2024/01/17 02:31:11;;;;;;;13.23;7.13;;;0.70;99.90;;;;;;5097056;28;20036;-80
2024/01/17 02:33:37;;;;;;;15.13;8.60;;;0.80;99.90;;;;;;5095746;28;20489;-79
2024/01/17 02:36:03;;;;;;;13.00;8.23;;;0.80;99.90;;;;;;5097327;28;20065;-79
2024/01/17 02:38:29;;;;;;;16.98;8.05;;;0.80;99.90;;;;;;5096745;28;20557;-79
2024/01/17 02:40:55;;;;;;;14.47;8.17;;;0.80;99.90;;;;;;5095662;28;20119;-80
2024/01/17 02:43:20;;;;;;;13.90;8.23;;;0.80;99.90;;;;;;5096657;28;20132;-79
2024/01/17 02:45:46;;;;;;;15.53;8.27;;;0.80;99.90;;;;;;5096912;28;20123;-79
2024/01/17 02:48:12;;;;;;;14.87;8.57;;;0.80;99.90;;;;;;5095682;28;20549;-80
2024/01/17 02:50:39;;;;;;;17.87;8.50;;;0.80;99.90;;;;;;5096510;28;20076;-80
2024/01/17 02:53:06;;;;;;;18.05;8.35;;;0.90;99.90;;;;;;5096788;28;20052;-80
2024/01/17 02:55:32;;;;;;;17.15;8.63;;;0.80;99.90;;;;;;5096273;28;20508;-79
2024/01/17 02:58:00;;;;;;;16.80;8.53;;;0.80;99.90;;;;;;5096570;28;20048;-79
2024/01/17 03:00:26;;;;;;;15.20;8.80;;;0.80;99.90;;;;;;5096213;28;20085;-79
2024/01/17 03:02:51;;;;;;;15.73;8.83;;;0.80;99.90;;;;;;5096675;28;20128;-79
2024/01/17 03:05:17;;;;;;;12.70;8.50;;;0.80;99.90;;;;;;5096226;28;20043;-77
2024/01/17 03:07:43;;;;;;;16.10;9.13;;;0.80;99.90;;;;;;5096163;28;20051;-80
2024/01/17 03:10:11;;;;;;;17.47;8.30;;;0.70;99.90;;;;;;5096380;28;20044;-79
2024/01/17 03:12:38;;;;;;;16.40;9.15;;;0.80;99.90;;;;;;5095817;28;20055;-79
2024/01/17 03:15:04;;;;;;;15.63;8.85;;;0.70;99.90;;;;;;5096311;28;20052;-79
2024/01/17 03:17:30;;;;;;;13.60;8.38;;;0.70;99.90;;;;;;5095989;28;20055;-79
2024/01/17 03:19:56;;;;;;;12.40;8.53;;;0.80;99.90;;;;;;5096158;28;20055;-80
2024/01/17 03:22:22;;;;;;;15.33;9.17;;;0.70;99.90;;;;;;5078139;28;20048;-79
2024/01/17 03:24:47;;;;;;;14.43;8.80;;;0.70;99.90;;;;;;5095770;28;20138;-79
2024/01/17 03:27:13;;;;;;;16.17;9.17;;;0.70;99.90;;;;;;5096091;28;20048;-80
2024/01/17 03:29:39;;;;;;;14.87;9.37;;;0.80;99.90;;;;;;5094566;28;20135;-79
2024/01/17 03:32:05;;;;;;;16.70;9.23;;;0.70;99.90;;;;;;5095988;28;20109;-80
2024/01/17 03:34:31;;;;;;;14.75;9.05;;;0.70;99.90;;;;;;5095728;28;20281;-80
2024/01/17 03:36:57;;;;;;;18.33;10.25;;;0.70;99.90;;;;;;5095881;28;20036;-80
2024/01/17 03:39:22;;;;;;;15.77;9.53;;;0.80;99.90;;;;;;5095772;28;20481;-79
2024/01/17 03:41:48;;;;;;;17.43;9.33;;;0.80;99.90;;;;;;5096345;28;20062;-80
2024/01/17 03:44:14;;;;;;;18.13;9.50;;;0.70;99.90;;;;;;5095753;28;20490;-80
2024/01/17 03:46:40;;;;;;;16.98;9.52;;;0.70;99.90;;;;;;5095513;28;20044;-80
2024/01/17 03:49:06;;;;;;;17.43;9.93;;;0.70;99.90;;;;;;5095611;28;20051;-80
2024/01/17 03:51:31;;;;;;;15.50;10.30;;;0.70;99.90;;;;;;5095460;28;20123;-80
2024/01/17 03:53:57;;;;;;;16.37;10.50;;;0.70;99.90;;;;;;5095524;28;20055;-80
2024/01/17 03:56:23;;;;;;;16.87;9.97;;;0.70;99.90;;;;;;5095567;28;20097;-80
2024/01/17 03:58:49;;;;;;;17.20;11.18;;;0.80;99.90;;;;;;5095598;28;20052;-79
2024/01/17 04:01:15;;;;;;;21.17;9.97;;;0.70;99.90;;;;;;5095014;28;20046;-80
2024/01/17 04:03:40;;;;;;;16.57;10.27;;;0.70;99.90;;;;;;5095102;28;20105;-80
2024/01/17 04:06:06;;;;;;;17.37;9.70;;;0.80;99.90;;;;;;5095287;28;20044;-80
2024/01/17 04:08:32;;;;;;;18.30;10.45;;;0.70;99.90;;;;;;5094964;28;20106;-79
2024/01/17 04:10:58;;;;;;;15.60;10.17;;;0.70;99.90;;;;;;5095359;28;20032;-80
2024/01/17 04:13:24;;;;;;;17.50;9.87;;;0.80;99.90;;;;;;5095132;28;20079;-80
2024/01/17 04:15:50;;;;;;;17.13;11.00;;;0.80;99.90;;;;;;5093835;28;20066;-79
2024/01/17 04:18:16;;;;;;;16.67;10.63;;;0.80;99.90;;;;;;5095072;28;20052;-80
2024/01/17 04:20:42;;;;;;;16.90;11.15;;;0.70;99.90;;;;;;5094799;28;20398;-79
2024/01/17 04:23:08;;;;;;;20.23;11.17;;;0.70;99.90;;;;;;5094969;28;20040;-79
2024/01/17 04:25:35;;;;;;;17.08;10.05;;;0.70;99.90;;;;;;5094719;28;20051;-80
2024/01/17 04:28:08;;;;;;;18.15;11.30;;;0.70;99.90;;;;;;5094860;28;20051;-80
2024/01/17 04:30:34;;;;;;;16.27;9.68;;;0.70;99.90;;;;;;5094583;28;20185;-79
2024/01/17 04:33:03;;;;;;;18.73;10.77;;;0.70;99.90;;;;;;5094771;28;20040;-80
2024/01/17 04:35:28;;;;;;;18.02;10.88;;;0.70;99.90;;;;;;5094441;28;20051;-79
2024/01/17 04:37:54;;;;;;;17.83;10.33;;;0.60;99.90;;;;;;5094681;28;20040;-79
2024/01/17 04:40:20;;;;;;;18.97;10.83;;;0.70;99.90;;;;;;5094554;28;20055;-80
2024/01/17 04:42:48;;;;;;;15.90;10.27;;;0.60;99.90;;;;;;5093844;28;20051;-79
2024/01/17 04:45:17;;;;;;;18.15;10.02;;;0.60;99.90;;;;;;5094546;28;20098;-80
2024/01/17 04:47:43;;;;;;;18.58;11.88;;;0.60;99.90;;;;;;5093099;28;20075;-79
2024/01/17 04:50:12;;;;;;;19.17;11.30;;;0.60;99.90;;;;;;5094440;28;20036;-79
2024/01/17 04:52:38;;;;;;;20.48;10.75;;;0.60;99.90;;;;;;5094264;28;20455;-79
2024/01/17 04:55:04;;;;;;;15.70;9.53;;;0.60;99.90;;;;;;5094284;28;20055;-79
2024/01/17 04:57:30;;;;;;;18.08;10.57;;;0.60;99.90;;;;;;5094434;28;20401;-80
2024/01/17 04:59:56;;;;;;;16.50;10.30;;;0.60;99.90;;;;;;5094094;28;20044;-80
2024/01/17 05:02:21;;;;;;;19.20;10.57;;;0.60;99.90;;;;;;5094048;28;20048;-80
2024/01/17 05:04:47;;;;;;;17.47;11.00;;;0.60;99.90;;;;;;5094001;28;20052;-79
2024/01/17 05:07:13;;;;;;;16.27;10.63;;;0.50;99.90;;;;;;5094131;28;20040;-80
2024/01/17 05:09:38;;;;;;;20.07;10.47;;;0.60;99.90;;;;;;5093815;28;20055;-79
2024/01/17 05:12:05;;;;;;;19.07;11.13;;;0.50;99.90;;;;;;5093985;28;20040;-79
2024/01/17 05:14:30;;;;;;;17.77;10.02;;;0.50;99.90;;;;;;5094021;28;20048;-79
2024/01/17 05:16:56;;;;;;;16.97;10.03;;;0.50;99.90;;;;;;5092530;28;20489;-80
2024/01/17 05:19:22;;;;;;;17.33;10.97;;;0.50;99.90;;;;;;5093863;28;20054;-79
2024/01/17 05:21:47;;;;;;;16.77;11.00;;;0.50;99.90;;;;;;5093524;28;20347;-79
2024/01/17 05:24:13;;;;;;;17.17;10.73;;;0.40;99.90;;;;;;5093870;28;20079;-79
2024/01/17 05:26:39;;;;;;;20.87;10.43;;;0.30;99.90;;;;;;5093703;28;20044;-79
2024/01/17 05:29:05;;;;;;;17.03;10.47;;;0.40;99.90;;;;;;5093824;28;20036;-79
2024/01/17 05:31:31;;;;;;;18.23;10.40;;;0.30;99.90;;;;;;5093438;28;20098;-80
2024/01/17 05:33:57;;;;;;;18.25;10.45;;;0.50;99.90;;;;;;5092337;28;20401;-79
2024/01/17 05:36:23;;;;;;;20.33;11.10;;;0.50;99.90;;;;;;5093343;28;20047;-79
2024/01/17 05:38:48;;;;;;;20.40;9.60;;;0.30;99.90;;;;;;5093358;28;20055;-79
2024/01/17 05:41:14;;;;;;;21.37;11.40;;;0.30;99.90;;;;;;5093730;28;20070;-80
2024/01/17 05:43:40;;;;;;;17.97;12.47;;;0.30;99.90;;;;;;5093388;28;20090;-79
2024/01/17 05:46:05;;;;;;;15.60;9.50;;;0.10;99.90;;;;;;5093575;28;20044;-79
2024/01/17 05:48:31;;;;;;;16.07;10.43;;;0.30;99.90;;;;;;5093470;28;20405;-79
2024/01/17 05:50:57;;;;;;;21.23;11.80;;;0.20;99.90;;;;;;5093321;28;20131;-79
2024/01/17 05:53:23;;;;;;;24.97;10.73;;;0.20;99.90;;;;;;5074698;28;20567;-79
2024/01/17 05:55:48;;;;;;;19.83;10.60;;;0.10;99.90;;;;;;5092733;28;20051;-79
2024/01/17 05:58:14;;;;;;;21.13;11.93;;;0.10;99.90;;;;;;5093425;28;20074;-79
2024/01/17 06:00:40;;;;;;;20.53;11.50;;;0.10;99.90;;;;;;5092130;28;20093;-79
2024/01/17 06:03:06;;;;;;;20.70;10.80;;;0.10;99.90;;;;;;5093345;28;20386;-80
2024/01/17 06:05:32;;;;;;;20.37;11.83;;;0.20;99.90;;;;;;5093706;28;20073;-79
2024/01/17 06:07:57;;;;;;;20.07;11.53;;;0.10;99.90;;;;;;5093363;28;20093;-80
2024/01/17 06:10:25;;;;;;;19.13;11.80;;;0.10;99.90;;;;;;5093237;28;20464;-80
2024/01/17 06:12:50;;;;;;;22.13;11.38;;;0.00;99.90;;;;;;5093104;28;20406;-79
2024/01/17 06:15:17;;;;;;;20.70;11.37;;;0.00;99.90;;;;;;5093261;28;20093;-80
2024/01/17 06:17:43;;;;;;;18.90;11.30;;;0.00;99.90;;;;;;5093094;28;20056;-79
2024/01/17 06:20:13;;;;;;;21.30;11.82;;;0.00;99.90;;;;;;5093116;28;20075;-80
2024/01/17 06:22:39;;;;;;;20.05;12.52;;;0.00;99.90;;;;;;5093145;28;20093;-80
2024/01/17 06:25:06;;;;;;;20.13;12.17;;;0.00;99.90;;;;;;5092914;28;20075;-79
2024/01/17 06:27:32;;;;;;;18.75;10.60;;;0.00;99.90;;;;;;5092808;28;20512;-80
2024/01/17 06:29:57;;;;;;;23.63;11.27;;;0.00;99.90;;;;;;5091701;28;20040;-79
2024/01/17 06:32:23;;;;;;;19.73;11.40;;;0.00;99.90;;;;;;5092686;28;20055;-80
2024/01/17 06:34:49;;;;;;;18.10;10.73;;;0.00;99.90;;;;;;5092896;28;20043;-79
2024/01/17 06:37:15;;;;;;;18.43;10.60;;;-0.10;99.90;;;;;;5092972;28;20048;-80
2024/01/17 06:39:41;;;;;;;16.95;10.93;;;-0.10;99.90;;;;;;5092970;28;20055;-80
2024/01/17 06:42:07;;;;;;;19.13;10.87;;;0.00;99.90;;;;;;5092725;28;20051;-80
2024/01/17 06:44:32;;;;;;;19.10;11.97;;;0.00;99.90;;;;;;5093085;28;20361;-80
2024/01/17 06:46:58;;;;;;;23.13;11.43;;;0.00;99.90;;;;;;5092777;28;20072;-80
2024/01/17 06:49:24;;;;;;;18.67;11.43;;;0.00;99.90;;;;;;5092934;28;20473;-80
2024/01/17 06:51:50;;;;;;;16.97;10.10;;;0.00;99.90;;;;;;5092690;28;20040;-80
2024/01/17 06:54:16;;;;;;;16.77;10.50;;;0.00;99.90;;;;;;5092824;28;20044;-80
2024/01/17 06:56:41;;;;;;;18.33;11.33;;;0.00;99.90;;;;;;5092551;28;20063;-80
2024/01/17 06:59:07;;;;;;;21.63;12.23;;;0.00;99.90;;;;;;5092702;28;20052;-80
2024/01/17 07:01:35;;;;;;;19.17;11.33;;;0.10;99.90;;;;;;5074794;28;20466;-80
2024/01/17 07:04:02;;;;;;;19.15;11.50;;;0.00;99.90;;;;;;5092576;28;20055;-80
2024/01/17 07:06:28;;;;;;;18.15;10.30;;;0.00;99.90;;;;;;5095927;28;20094;-80
2024/01/17 07:08:54;;;;;;;15.30;10.87;;;0.00;99.90;;;;;;5096278;28;20101;-80
2024/01/17 07:11:20;;;;;;;18.35;10.40;;;0.20;99.90;;;;;;5096381;28;20044;-80
2024/01/17 07:13:45;;;;;;;17.87;10.07;;;-0.10;99.90;;;;;;5096317;28;20113;-80
2024/01/17 07:16:17;;;;;;;18.40;11.33;;;0.00;99.90;;;;;;5095087;28;20044;-80
2024/01/17 07:18:43;;;;;;;19.98;9.77;;;-0.10;99.90;;;;;;5096210;28;20044;-80
2024/01/17 07:21:08;;;;;;;17.53;11.10;;;0.00;99.90;;;;;;5095963;28;20071;-80
2024/01/17 07:23:36;;;;;;;15.17;9.97;;;-0.10;99.90;;;;;;5096377;28;20048;-80
2024/01/17 07:26:03;;;;;;;17.30;10.00;;;-0.20;99.90;;;;;;5096255;28;20131;-80
2024/01/17 07:28:29;;;;;;;17.10;10.98;;;-0.20;99.90;;;;;;5096380;28;20153;-80
2024/01/17 07:30:55;;;;;;;16.87;9.90;;;-0.20;99.90;;;;;;5095903;28;20468;-79
2024/01/17 07:33:21;;;;;;;19.83;11.67;;;-0.10;99.90;;;;;;5078185;28;20117;-80
2024/01/17 07:35:47;;;;;;;17.13;9.67;;;-0.20;99.90;;;;;;5095947;28;20040;-79
2024/01/17 07:38:13;;;;;;;18.00;10.50;;;-0.30;99.90;;;;;;5095695;28;20070;-79
2024/01/17 07:40:38;;;;;;;20.23;11.35;;;-0.30;99.90;;;;;;5095428;28;20490;-80
2024/01/17 07:43:04;;;;;;;17.93;10.73;;;-0.30;99.90;;;;;;5095684;28;20051;-80
2024/01/17 07:45:30;;;;;;;19.92;10.68;;;-0.30;99.90;;;;;;5095425;28;20592;-80
2024/01/17 07:47:56;;;;;;;20.53;10.57;;;-0.30;99.90;;;;;;5095602;28;20127;-80
2024/01/17 07:50:23;;;;;;;16.70;11.10;;;-0.30;99.90;;;;;;5095615;28;20107;-80
2024/01/17 07:52:49;;;;;;;18.60;10.98;;;-0.30;99.90;;;;;;5095576;28;20047;-80
2024/01/17 07:55:15;;;;;;;20.10;10.37;;;-0.40;99.90;;;;;;5095291;28;20043;-80
2024/01/17 07:57:41;;;;;;;17.05;9.85;;;-0.40;99.90;;;;;;5095093;28;20063;-80
2024/01/17 08:00:08;;;;;;;20.07;10.80;;;-0.40;99.90;;;;;;5094843;28;20044;-80
2024/01/17 08:02:33;;;;;;;15.82;9.65;;;-0.40;99.90;;;;;;5095365;28;20743;-80
2024/01/17 08:04:59;;;;;;;20.57;11.30;;;-0.40;99.90;;;;;;5095195;28;20051;-80
2024/01/17 08:07:26;;;;;;;18.90;11.07;;;-0.40;99.90;;;;;;5095044;28;20048;-80
2024/01/17 08:09:52;;;;;;;18.13;10.48;;;-0.40;99.90;;;;;;5095245;28;20123;-80
2024/01/17 08:12:19;;;;;;;19.42;11.60;;;-0.40;99.90;;;;;;5095006;28;20044;-80
2024/01/17 08:14:45;;;;;;;22.23;10.40;;;-0.40;99.90;;;;;;5095224;28;20052;-80
2024/01/17 08:17:11;;;;;;;17.80;10.70;;;-0.40;99.90;;;;;;5093117;28;20385;-80
2024/01/17 08:19:37;;;;;;;16.02;10.82;;;-0.40;99.90;;;;;;5095065;28;20289;-80
2024/01/17 08:22:04;;;;;;;16.40;10.65;;;-0.40;99.90;;;;;;5094641;28;20044;-80
2024/01/17 08:24:30;;;;;;;17.58;10.88;;;-0.40;99.90;;;;;;5094983;28;20044;-80
2024/01/17 08:26:56;;;;;;;19.67;11.20;;;-0.30;99.90;;;;;;5095130;28;20101;-80
2024/01/17 08:29:23;;;;;;;18.60;11.13;;;-0.30;99.90;;;;;;5094815;28;20051;-80
2024/01/17 08:31:49;;;;;;;28.83;10.98;;;-0.30;99.90;;;;;;5094838;28;20048;-80
2024/01/17 08:34:15;;;;;;;21.90;11.30;;;-0.30;99.90;;;;;;5094585;28;20493;-80
2024/01/17 08:36:41;;;;;;;21.40;10.90;;;-0.20;99.90;;;;;;5094605;28;20123;-80
2024/01/17 08:39:07;;;;;;;16.48;10.55;;;-0.20;99.90;;;;;;5093607;28;20131;-80
2024/01/17 08:41:33;;;;;;;18.25;10.95;;;-0.20;99.90;;;;;;5094555;28;20398;-80
2024/01/17 08:44:02;;;;;;;16.70;10.47;;;-0.30;99.90;;;;;;5094821;28;20134;-80
2024/01/17 08:46:28;;;;;;;21.00;11.10;;;-0.20;99.90;;;;;;5094515;28;20278;-80
2024/01/17 08:48:54;;;;;;;19.58;10.77;;;-0.20;99.90;;;;;;5094516;28;20052;-80
2024/01/17 08:51:21;;;;;;;19.33;11.10;;;-0.20;99.90;;;;;;5094360;28;20048;-80
2024/01/17 08:53:48;;;;;;;20.05;11.50;;;-0.20;99.90;;;;;;5093311;28;20382;-80
2024/01/17 08:56:14;;;;;;;15.88;10.55;;;-0.10;99.90;;;;;;5094007;28;20098;-80
2024/01/17 08:58:42;;;;;;;19.25;10.85;;;0.00;99.90;;;;;;5094327;28;20052;-80
2024/01/17 09:01:09;;;;;;;16.65;9.73;;;-0.10;99.90;;;;;;5094116;28;20044;-80
2024/01/17 09:03:36;;;;;;;16.23;9.93;;;-0.10;99.90;;;;;;5094212;28;20489;-80
2024/01/17 09:06:02;;;;;;;17.02;10.48;;;0.00;99.90;;;;;;5094129;28;20048;-80
2024/01/17 09:08:28;;;;;;;16.80;10.13;;;-0.10;99.90;;;;;;5093969;28;20097;-80
2024/01/17 09:10:54;;;;;;;18.85;10.43;;;-0.10;99.90;;;;;;5094172;28;20048;-80
2024/01/17 09:13:20;;;;;;;17.70;11.10;;;0.00;99.90;;;;;;5093873;28;20390;-80
2024/01/17 09:15:46;;;;;;;18.05;10.10;;;-0.10;99.90;;;;;;5094028;28;20048;-80
2024/01/17 09:18:12;;;;;;;17.33;9.30;;;0.10;99.90;;;;;;5093701;28;20389;-80
2024/01/17 09:20:37;;;;;;;19.20;10.87;;;0.00;99.90;;;;;;5093912;28;20083;-80
2024/01/17 09:23:03;;;;;;;18.40;9.60;;;0.00;99.90;;;;;;5092740;28;20048;-80
2024/01/17 09:25:30;;;;;;;17.77;10.30;;;0.10;99.90;;;;;;5093577;28;20102;-80
2024/01/17 09:27:55;;;;;;;15.50;9.38;;;0.10;99.90;;;;;;5092677;28;20436;-80
2024/01/17 09:30:21;;;;;;;18.90;10.53;;;0.00;99.90;;;;;;5093624;28;20044;-80
2024/01/17 09:32:47;;;;;;;16.33;10.20;;;0.10;99.90;;;;;;5093922;28;20048;-80
2024/01/17 09:35:16;;;;;;;17.30;9.30;;;0.10;99.90;;;;;;5093492;28;20048;-79
2024/01/17 09:37:43;;;;;;;15.48;10.63;;;0.20;99.90;;;;;;5093869;28;20043;-80
2024/01/17 09:40:10;;;;;;;17.92;10.05;;;0.10;99.90;;;;;;5093444;28;20371;-79
2024/01/17 09:42:36;;;;;;;18.10;10.82;;;0.20;99.90;;;;;;5093305;28;20052;-80
2024/01/17 09:45:03;;;;;;;17.77;10.02;;;0.20;99.90;;;;;;5093555;28;20131;-80
2024/01/17 09:47:33;;;;;;;16.98;9.52;;;0.20;99.90;;;;;;5092187;28;20079;-80
2024/01/17 09:49:59;;;;;;;14.85;10.07;;;0.20;99.90;;;;;;5093663;28;20048;-80
2024/01/17 09:52:25;;;;;;;16.40;10.57;;;0.10;99.90;;;;;;5092114;28;20108;-80
2024/01/17 09:54:52;;;;;;;15.87;9.47;;;0.20;99.90;;;;;;5092561;28;20135;-80
2024/01/17 09:57:25;;;;;;;14.70;10.65;;;0.30;99.90;;;;;;5093320;28;20056;-79
2024/01/17 09:59:57;;;;;;;22.83;11.18;;;0.20;99.90;;;;;;5092280;28;20096;-80
2024/01/17 10:02:24;;;;;;;15.65;10.68;;;0.20;99.90;;;;;;5075310;28;20119;-80
2024/01/17 10:04:50;;;;;;;19.00;9.63;;;0.30;99.90;;;;;;5092236;28;20371;-80
2024/01/17 10:07:19;;;;;;;15.27;10.17;;;0.30;99.90;;;;;;5091906;28;20047;-79
2024/01/17 10:09:45;;;;;;;17.77;10.90;;;0.40;99.90;;;;;;5092255;28;20394;-80
2024/01/17 10:12:13;;;;;;;19.77;9.38;;;0.50;99.90;;;;;;5093261;28;20040;-80
2024/01/17 10:14:40;;;;;;;16.45;9.43;;;0.50;99.90;;;;;;5093387;28;20048;-80
2024/01/17 10:17:06;;;;;;;17.98;10.18;;;0.50;99.90;;;;;;5093367;28;20071;-80
2024/01/17 10:19:33;;;;;;;15.50;8.85;;;0.60;99.90;;;;;;5093016;28;20473;-80
2024/01/17 10:22:02;;;;;;;16.75;8.48;;;0.50;99.90;;;;;;5092025;28;20576;-80
2024/01/17 10:24:32;;;;;;;16.60;9.52;;;0.60;99.90;;;;;;5092941;28;20048;-80
2024/01/17 10:26:57;;;;;;;15.80;9.55;;;0.60;99.90;;;;;;5093322;28;20044;-80
2024/01/17 10:29:23;;;;;;;16.90;9.43;;;0.60;99.90;;;;;;5092914;28;20050;-80
2024/01/17 10:31:49;;;;;;;15.37;8.87;;;0.70;99.90;;;;;;5093085;28;20428;-79
2024/01/17 10:34:14;;;;;;;15.23;9.57;;;0.70;99.90;;;;;;5092885;28;20044;-78
2024/01/17 10:36:44;;;;;;;16.73;8.97;;;0.70;99.90;;;;;;5093292;28;20529;-81
2024/01/17 10:39:11;;;;;;;14.77;8.75;;;0.70;99.90;;;;;;5093006;28;20131;-83
2024/01/17 10:41:54;;;;;;;17.00;9.32;;;0.60;99.90;;;;;;5095224;28;20083;-80
2024/01/17 10:44:27;;;;;;;16.40;9.32;;;0.70;99.90;;;;;;5096802;28;20052;-80
2024/01/17 10:46:54;;;;;;;18.85;9.77;;;0.80;99.90;;;;;;5096962;28;20105;-80
2024/01/17 10:49:20;;;;;;;16.85;9.63;;;0.70;99.90;;;;;;5096732;28;20446;-79
2024/01/17 10:51:56;;;;;;;16.95;8.15;;;0.70;99.90;;;;;;5097027;28;20375;-80
2024/01/17 10:54:28;;;;;;;16.00;8.30;;;0.80;99.90;;;;;;5095378;28;20043;-79
2024/01/17 10:56:55;;;;;;;15.68;7.90;;;0.80;99.90;;;;;;5096431;28;20070;-80
2024/01/17 10:59:22;;;;;;;15.40;8.90;;;0.90;99.90;;;;;;5096207;28;20554;-80
2024/01/17 11:01:53;;;;;;;14.88;8.10;;;0.90;99.90;;;;;;5096509;28;20375;-80
2024/01/17 11:04:34;;;;;;;16.77;8.48;;;1.00;99.90;;;;;;5096415;28;20071;-78
2024/01/17 11:07:00;;;;;;;14.50;7.50;;;1.00;99.90;;;;;;5096533;28;20399;-80
2024/01/17 11:09:27;;;;;;;13.65;8.93;;;1.00;99.90;;;;;;5096332;28;20102;-80
2024/01/17 11:11:55;;;;;;;14.45;8.60;;;1.00;99.90;;;;;;5096396;28;20044;-81
2024/01/17 11:14:22;;;;;;;17.70;8.85;;;1.00;99.90;;;;;;5096213;28;20062;-80
2024/01/17 11:16:49;;;;;;;15.32;8.10;;;1.00;99.90;;;;;;5096598;28;20051;-81
2024/01/17 11:19:19;;;;;;;14.57;8.00;;;1.00;99.90;;;;;;5096214;28;20048;-81
2024/01/17 11:21:45;;;;;;;14.82;7.90;;;1.00;99.90;;;;;;5095881;28;20432;-81
2024/01/17 11:24:23;;;;;;;16.17;7.63;;;1.00;99.90;;;;;;5096236;28;20044;-81
2024/01/17 11:27:00;;;;;;;13.27;7.82;;;1.00;99.90;;;;;;5096424;28;20282;-81
2024/01/17 11:29:37;;;;;;;12.43;8.13;;;1.00;99.90;;;;;;5096002;28;20052;-80
2024/01/17 11:32:28;;;;;;;13.35;7.15;;;1.10;99.90;;;;;;5096173;28;20048;-81
2024/01/17 11:34:54;;;;;;;14.85;7.57;;;1.10;99.90;;;;;;5096066;28;20448;-81
2024/01/17 11:37:30;;;;;;;13.40;7.35;;;1.00;99.90;;;;;;5095863;28;20549;-81
2024/01/17 11:40:00;;;;;;;12.75;8.00;;;1.10;99.90;;;;;;5095835;28;20044;-81
2024/01/17 11:42:26;;;;;;;17.83;8.60;;;1.10;99.90;;;;;;5095721;28;20047;-81
2024/01/17 11:44:52;;;;;;;14.67;8.17;;;1.10;99.90;;;;;;5096050;28;20040;-82
2024/01/17 11:47:20;;;;;;;11.45;7.50;;;1.20;99.90;;;;;;5095911;28;20040;-82
2024/01/17 11:49:46;;;;;;;13.00;7.75;;;1.20;99.90;;;;;;5094531;28;20128;-82
2024/01/17 11:52:35;;;;;;;13.15;8.00;;;1.20;99.90;;;;;;5094311;28;20040;-82
2024/01/17 11:55:02;;;;;;;13.10;7.82;;;1.20;99.90;;;;;;5095851;28;20114;-82
2024/01/17 11:57:32;;;;;;;15.00;8.68;;;1.20;99.90;;;;;;5095404;28;20060;-81
2024/01/17 12:00:08;;;;;;;15.55;9.35;;;1.20;99.90;;;;;;5095803;28;20197;-82
2024/01/17 12:02:43;;;;;;;15.23;8.27;;;1.20;99.90;;;;;;5095275;28;20127;-81
2024/01/17 12:05:11;;;;;;;13.50;8.45;;;1.20;99.90;;;;;;5095516;28;20047;-82
2024/01/17 12:07:41;;;;;;;13.98;8.18;;;1.20;99.90;;;;;;5095154;28;20397;-81
2024/01/17 12:10:12;;;;;;;10.25;7.07;;;1.20;99.90;;;;;;5095389;28;20137;-82
2024/01/17 12:12:44;;;;;;;16.38;8.20;;;1.20;99.90;;;;;;5095083;28;20543;-82
2024/01/17 12:15:11;;;;;;;15.68;7.80;;;1.20;99.90;;;;;;5095310;28;20044;-82
2024/01/17 12:17:43;;;;;;;14.10;7.65;;;1.30;99.90;;;;;;5093872;28;20048;-82
2024/01/17 12:20:09;;;;;;;15.30;7.55;;;1.20;99.90;;;;;;5095069;28;20058;-82
2024/01/17 12:22:35;;;;;;;13.40;7.90;;;1.30;99.90;;;;;;5094891;28;20051;-81
2024/01/17 12:25:01;;;;;;;14.80;8.57;;;1.30;99.90;;;;;;5095172;28;20048;-81
2024/01/17 12:27:33;;;;;;;12.77;7.10;;;1.20;99.90;;;;;;5094995;28;20109;-81
2024/01/17 12:30:04;;;;;;;14.02;7.82;;;1.20;99.90;;;;;;5095189;28;20058;-81
2024/01/17 12:32:30;;;;;;;14.88;7.70;;;1.20;99.90;;;;;;5094724;28;20044;-80
2024/01/17 12:34:56;;;;;;;15.40;8.70;;;1.20;99.90;;;;;;5094780;28;20051;-82
2024/01/17 12:37:22;;;;;;;13.90;8.57;;;1.10;99.90;;;;;;5094815;28;20054;-82